createdAt,value
2022-08-22T00:02:06.188Z,86.44
2022-08-22T00:02:41.978Z,63.85
2022-08-22T00:02:55.493Z,84.36
2022-08-22T00:04:41.405Z,86.10
2022-08-22T00:07:20.114Z,86.91
2022-08-22T00:10:09.305Z,86.80
2022-08-22T00:12:49.824Z,86.77
2022-08-22T00:15:43.668Z,86.96
2022-08-22T00:18:18.725Z,86.51
2022-08-22T00:20:56.712Z,87.35
2022-08-22T00:23:27.703Z,88.92
2022-08-22T00:25:58.811Z,87.93
2022-08-22T00:28:36.145Z,87.31
2022-08-22T00:31:08.984Z,87.49
2022-08-22T00:33:48.261Z,87.86
2022-08-22T00:36:18.836Z,87.85
2022-08-22T00:38:52.918Z,87.57
2022-08-22T00:41:41.566Z,87.94
2022-08-22T00:44:18.471Z,88.58
2022-08-22T00:47:06.641Z,88.71
2022-08-22T00:49:45.060Z,88.11
2022-08-22T00:52:17.427Z,88.04
2022-08-22T00:55:09.446Z,88.12
2022-08-22T00:57:44.960Z,87.50
2022-08-22T01:00:19.561Z,87.99
2022-08-22T01:03:01.256Z,88.14
2022-08-22T01:05:46.325Z,87.73
2022-08-22T01:08:39.178Z,87.88
2022-08-22T01:11:31.202Z,88.21
2022-08-22T01:14:34.548Z,87.47
2022-08-22T01:17:37.753Z,87.59
2022-08-22T01:20:20.690Z,87.83
2022-08-22T01:23:08.975Z,88.20
2022-08-22T01:26:13.076Z,88.06
2022-08-22T01:29:07.955Z,88.57
2022-08-22T01:31:42.691Z,88.22
2022-08-22T01:34:46.670Z,88.95
2022-08-22T01:37:41.763Z,88.55
2022-08-22T01:40:22.330Z,88.59
2022-08-22T01:42:52.948Z,88.44
2022-08-22T01:45:43.957Z,88.56
2022-08-22T01:48:41.377Z,88.10
2022-08-22T01:51:24.778Z,88.44
2022-08-22T01:54:09.345Z,88.15
2022-08-22T01:56:42.141Z,88.53
2022-08-22T01:59:12.899Z,88.39
2022-08-22T02:02:14.061Z,89.03
2022-08-22T02:04:53.781Z,89.19
2022-08-22T02:07:32.069Z,89.12
2022-08-22T02:10:09.985Z,88.59
2022-08-22T02:12:57.797Z,89.05
2022-08-22T02:15:39.426Z,89.05
2022-08-22T02:18:05.963Z,88.91
2022-08-22T02:20:57.487Z,89.02
2022-08-22T02:23:47.810Z,89.26
2022-08-22T02:26:21.015Z,89.69
2022-08-22T02:28:58.224Z,89.56
2022-08-22T02:31:35.922Z,89.30
2022-08-22T02:34:20.286Z,89.27
2022-08-22T02:37:09.327Z,89.36
2022-08-22T02:39:45.803Z,89.35
2022-08-22T02:42:24.535Z,89.93
2022-08-22T02:45:29.965Z,89.99
2022-08-22T02:48:20.000Z,89.58
2022-08-22T02:51:13.977Z,89.60
2022-08-22T02:54:14.253Z,90.10
2022-08-22T02:56:53.214Z,89.79
2022-08-22T02:59:32.268Z,91.18
2022-08-22T03:02:26.276Z,90.82
2022-08-22T03:04:56.789Z,90.35
2022-08-22T03:07:34.288Z,90.25
2022-08-22T03:10:13.584Z,90.99
2022-08-22T03:13:08.002Z,90.90
2022-08-22T03:15:49.255Z,91.10
2022-08-22T03:18:42.334Z,91.76
2022-08-22T03:21:18.411Z,91.17
2022-08-22T03:24:14.436Z,92.59
2022-08-22T03:27:10.246Z,93.33
2022-08-22T03:30:00.448Z,93.04
2022-08-22T03:33:12.822Z,93.27
2022-08-22T03:35:57.292Z,93.55
2022-08-22T03:38:32.741Z,94.28
2022-08-22T03:41:30.156Z,94.27
2022-08-22T03:44:37.708Z,95.31
2022-08-22T03:47:33.900Z,94.84
2022-08-22T03:50:23.588Z,93.93
2022-08-22T03:53:20.602Z,94.42
2022-08-22T03:56:10.233Z,93.47
2022-08-22T03:58:45.606Z,93.08
2022-08-22T04:01:49.610Z,92.63
2022-08-22T04:04:34.461Z,92.47
2022-08-22T04:07:31.594Z,92.26
2022-08-22T04:10:29.498Z,92.41
2022-08-22T04:13:10.753Z,92.31
2022-08-22T04:16:32.798Z,93.12
2022-08-22T04:19:39.256Z,92.45
2022-08-22T04:22:43.016Z,92.00
2022-08-22T04:25:19.869Z,91.67
2022-08-22T04:27:55.086Z,91.42
2022-08-22T04:30:24.565Z,91.66
2022-08-22T04:33:04.072Z,91.83
2022-08-22T04:36:01.284Z,92.31
2022-08-22T04:38:40.240Z,92.17
2022-08-22T04:41:14.864Z,92.07
2022-08-22T04:43:50.809Z,92.44
2022-08-22T04:46:43.351Z,93.18
2022-08-22T04:49:21.316Z,93.47
2022-08-22T04:51:57.276Z,93.13
2022-08-22T04:54:41.887Z,92.71
2022-08-22T04:57:21.198Z,92.31
2022-08-22T04:59:49.698Z,92.62
2022-08-22T05:02:26.599Z,91.90
2022-08-22T05:05:01.940Z,93.00
2022-08-22T05:07:35.997Z,93.42
2022-08-22T05:10:12.066Z,93.84
2022-08-22T05:12:45.873Z,94.27
2022-08-22T05:15:23.157Z,94.50
2022-08-22T05:17:53.385Z,94.64
2022-08-22T05:20:23.551Z,94.26
2022-08-22T05:22:55.529Z,94.04
2022-08-22T05:25:28.685Z,94.33
2022-08-22T05:28:06.092Z,93.54
2022-08-22T05:30:34.561Z,93.43
2022-08-22T05:33:26.572Z,94.82
2022-08-22T05:35:58.873Z,95.11
2022-08-22T05:38:32.244Z,96.27
2022-08-22T05:41:08.489Z,97.00
2022-08-22T05:43:39.188Z,96.50
2022-08-22T05:46:09.677Z,95.83
2022-08-22T05:48:45.604Z,95.27
2022-08-22T05:51:19.255Z,94.57
2022-08-22T05:53:51.025Z,95.57
2022-08-22T05:56:43.036Z,97.08
2022-08-22T05:59:32.505Z,97.29
2022-08-22T06:02:05.288Z,96.29
2022-08-22T06:04:37.460Z,95.25
2022-08-22T06:07:30.861Z,95.21
2022-08-22T06:10:14.612Z,95.66
2022-08-22T06:12:44.243Z,95.74
2022-08-22T06:15:21.219Z,95.55
2022-08-22T06:17:50.915Z,95.93
2022-08-22T06:20:23.122Z,95.74
2022-08-22T06:22:57.019Z,95.42
2022-08-22T06:25:32.033Z,94.95
2022-08-22T06:28:03.749Z,95.07
2022-08-22T06:30:31.086Z,95.41
2022-08-22T06:33:02.952Z,94.92
2022-08-22T06:35:41.663Z,95.11
2022-08-22T06:38:09.136Z,95.10
2022-08-22T06:40:35.708Z,94.58
2022-08-22T06:43:03.081Z,94.44
2022-08-22T06:45:32.859Z,94.05
2022-08-22T06:48:05.351Z,93.32
2022-08-22T06:50:42.517Z,92.54
2022-08-22T06:53:21.009Z,91.98
2022-08-22T06:55:53.759Z,91.40
2022-08-22T06:58:31.015Z,91.53
2022-08-22T07:01:11.718Z,90.79
2022-08-22T07:03:44.862Z,89.77
2022-08-22T07:06:17.058Z,90.37
2022-08-22T07:08:43.886Z,89.84
2022-08-22T07:11:25.961Z,87.70
2022-08-22T07:14:01.928Z,82.81
2022-08-22T07:16:33.613Z,80.36
2022-08-22T07:19:00.478Z,79.03
2022-08-22T07:21:30.215Z,77.25
2022-08-22T07:24:00.369Z,71.94
2022-08-22T07:26:52.780Z,67.08
2022-08-22T07:29:27.952Z,62.42
2022-08-22T07:32:09.746Z,60.34
2022-08-22T07:34:57.779Z,59.89
2022-08-22T07:37:37.101Z,60.09
2022-08-22T07:40:09.699Z,60.99
2022-08-22T07:42:56.364Z,59.95
2022-08-22T07:45:34.982Z,59.42
2022-08-22T07:48:10.796Z,61.47
2022-08-22T07:51:02.126Z,60.90
2022-08-22T07:53:41.443Z,61.93
2022-08-22T07:56:38.114Z,60.89
2022-08-22T07:59:12.958Z,60.58
2022-08-22T08:01:45.808Z,60.79
2022-08-22T08:04:17.616Z,60.45
2022-08-22T08:06:52.106Z,60.59
2022-08-22T08:09:19.741Z,57.51
2022-08-22T08:11:49.118Z,56.99
2022-08-22T08:14:16.427Z,55.52
2022-08-22T08:16:56.173Z,51.33
2022-08-22T08:19:23.543Z,51.51
2022-08-22T08:21:54.040Z,47.85
2022-08-22T08:24:26.439Z,48.38
2022-08-22T08:26:57.991Z,46.29
2022-08-22T08:29:24.629Z,46.72
2022-08-22T08:31:51.265Z,44.19
2022-08-22T08:34:24.026Z,41.50
2022-08-22T08:37:02.126Z,41.00
2022-08-22T08:39:37.688Z,42.51
2022-08-22T08:42:32.246Z,43.81
2022-08-22T08:45:07.657Z,40.65
2022-08-22T08:48:05.885Z,41.86
2022-08-22T08:50:50.820Z,41.02
2022-08-22T08:53:43.299Z,42.13
2022-08-22T08:56:28.755Z,40.17
2022-08-22T08:59:44.050Z,38.39
2022-08-22T09:02:34.975Z,39.64
2022-08-22T09:05:15.996Z,40.46
2022-08-22T09:08:00.787Z,40.69
2022-08-22T09:11:09.702Z,39.50
2022-08-22T09:14:05.905Z,39.03
2022-08-22T09:16:51.576Z,39.12
2022-08-22T09:19:46.352Z,39.51
2022-08-22T09:22:33.462Z,37.72
2022-08-22T09:25:38.608Z,39.07
2022-08-22T09:28:12.560Z,40.25
2022-08-22T09:34:35.145Z,39.53
2022-08-22T09:37:20.389Z,39.15
2022-08-22T09:39:51.777Z,39.75
2022-08-22T09:42:24.456Z,40.91
2022-08-22T09:45:22.312Z,41.40
2022-08-22T09:48:10.713Z,40.22
2022-08-22T09:51:28.750Z,41.40
2022-08-22T09:54:07.746Z,41.68
2022-08-22T09:56:42.440Z,42.37
2022-08-22T09:59:17.069Z,42.76
2022-08-22T10:01:55.869Z,42.10
2022-08-22T10:04:42.420Z,41.94
2022-08-22T10:07:30.976Z,42.23
2022-08-22T10:10:22.767Z,42.59
2022-08-22T10:13:21.200Z,41.76
2022-08-22T10:16:01.255Z,43.14
2022-08-22T10:18:52.555Z,42.07
2022-08-22T10:22:14.535Z,43.07
2022-08-22T10:24:47.905Z,42.93
2022-08-22T10:27:19.562Z,39.91
2022-08-22T10:30:11.436Z,40.75
2022-08-22T10:33:01.057Z,40.32
2022-08-22T10:35:34.469Z,41.41
2022-08-22T10:38:12.416Z,39.44
2022-08-22T10:40:43.507Z,38.98
2022-08-22T10:43:29.476Z,37.81
2022-08-22T10:46:06.798Z,37.95
2022-08-22T10:48:55.608Z,39.55
2022-08-22T10:51:36.772Z,39.10
2022-08-22T10:54:19.952Z,36.96
2022-08-22T10:56:49.769Z,38.34
2022-08-22T10:59:44.409Z,40.19
2022-08-22T11:02:31.914Z,38.02
2022-08-22T11:05:20.013Z,39.13
2022-08-22T11:08:08.268Z,39.83
2022-08-22T11:11:06.086Z,39.77
2022-08-22T11:13:32.369Z,40.77
2022-08-22T11:16:04.652Z,42.42
2022-08-22T11:18:44.327Z,41.07
2022-08-22T11:22:03.754Z,39.90
2022-08-22T11:24:55.369Z,40.44
2022-08-22T11:27:59.615Z,40.71
2022-08-22T11:30:51.325Z,41.01
2022-08-22T11:33:32.516Z,40.64
2022-08-22T11:36:27.840Z,40.99
2022-08-22T11:39:20.973Z,39.80
2022-08-22T11:42:11.367Z,38.39
2022-08-22T11:44:50.839Z,40.01
2022-08-22T11:47:20.467Z,40.30
2022-08-22T11:50:13.489Z,39.25
2022-08-22T11:53:09.079Z,39.82
2022-08-22T11:55:43.345Z,37.30
2022-08-22T11:58:18.891Z,38.68
2022-08-22T12:00:53.289Z,37.20
2022-08-22T12:03:42.897Z,37.94
2022-08-22T12:06:24.617Z,38.15
2022-08-22T12:09:24.160Z,36.86
2022-08-22T12:11:56.600Z,37.79
2022-08-22T12:14:49.265Z,36.53
2022-08-22T12:17:55.267Z,36.70
2022-08-22T12:20:53.276Z,36.16
2022-08-22T12:23:48.824Z,37.10
2022-08-22T12:26:55.038Z,38.81
2022-08-22T12:29:44.994Z,37.62
2022-08-22T12:32:43.917Z,38.29
2022-08-22T12:35:36.647Z,40.38
2022-08-22T12:38:29.179Z,39.33
2022-08-22T12:41:13.106Z,40.11
2022-08-22T12:43:51.690Z,41.16
2022-08-22T12:46:48.220Z,39.77
2022-08-22T12:49:21.465Z,39.61
2022-08-22T12:52:08.848Z,39.52
2022-08-22T12:54:47.560Z,39.86
2022-08-22T12:57:24.693Z,40.87
2022-08-22T13:00:01.934Z,42.06
2022-08-22T13:02:33.301Z,40.84
2022-08-22T13:05:11.476Z,41.53
2022-08-22T13:07:52.330Z,41.33
2022-08-22T13:10:40.354Z,41.18
2022-08-22T13:13:12.047Z,42.09
2022-08-22T13:15:42.469Z,43.52
2022-08-22T13:18:29.611Z,41.37
2022-08-22T13:21:00.841Z,42.04
2022-08-22T13:23:34.265Z,41.80
2022-08-22T13:26:09.018Z,40.69
2022-08-22T13:28:56.851Z,40.52
2022-08-22T13:31:38.957Z,42.12
2022-08-22T13:34:10.852Z,40.22
2022-08-22T13:36:51.595Z,40.74
2022-08-22T13:39:24.617Z,40.50
2022-08-22T13:41:53.192Z,40.69
2022-08-22T13:44:24.597Z,39.91
2022-08-22T13:47:12.644Z,40.80
2022-08-22T13:49:42.409Z,41.26
2022-08-22T13:52:29.322Z,42.03
2022-08-22T13:55:17.998Z,40.61
2022-08-22T13:58:02.718Z,41.03
2022-08-22T14:00:58.075Z,39.96
2022-08-22T14:03:49.206Z,41.13
2022-08-22T14:06:35.343Z,39.72
2022-08-22T14:09:32.027Z,41.61
2022-08-22T14:12:25.089Z,41.26
2022-08-22T14:14:57.756Z,39.75
2022-08-22T14:17:33.177Z,40.21
2022-08-22T14:20:08.185Z,39.80
2022-08-22T14:22:39.773Z,39.20
2022-08-22T14:25:26.752Z,37.65
2022-08-22T14:28:01.035Z,38.57
2022-08-22T14:30:38.828Z,35.66
2022-08-22T14:33:13.666Z,36.17
2022-08-22T14:35:52.748Z,35.93
2022-08-22T14:38:31.734Z,38.25
2022-08-22T14:41:25.002Z,37.69
2022-08-22T14:44:08.110Z,37.73
2022-08-22T14:46:44.592Z,37.39
2022-08-22T14:49:26.249Z,37.21
2022-08-22T14:52:09.630Z,38.20
2022-08-22T14:54:37.843Z,37.63
2022-08-22T14:57:12.684Z,37.51
2022-08-22T14:59:50.057Z,37.79
2022-08-22T15:02:27.888Z,38.42
2022-08-22T15:04:55.513Z,38.84
2022-08-22T15:07:34.968Z,38.64
2022-08-22T15:10:22.310Z,38.47
2022-08-22T15:12:52.619Z,37.87
2022-08-22T15:15:30.981Z,37.20
2022-08-22T15:17:58.873Z,38.76
2022-08-22T15:20:35.246Z,38.72
2022-08-22T15:23:09.782Z,38.59
2022-08-22T15:25:40.978Z,39.19
2022-08-22T15:28:20.419Z,39.14
2022-08-22T15:30:59.397Z,39.11
2022-08-22T15:33:36.049Z,38.31
2022-08-22T15:36:11.046Z,38.14
2022-08-22T15:38:47.990Z,40.18
2022-08-22T15:41:36.312Z,40.92
2022-08-22T15:44:31.072Z,41.14
2022-08-22T15:47:04.585Z,42.22
2022-08-22T15:49:36.685Z,41.19
2022-08-22T15:52:03.884Z,40.67
2022-08-22T15:54:51.105Z,40.45
2022-08-22T15:57:24.956Z,39.92
2022-08-22T16:00:00.203Z,40.28
2022-08-22T16:02:38.835Z,40.15
2022-08-22T16:05:11.401Z,40.37
2022-08-22T16:07:48.566Z,40.16
2022-08-22T16:10:23.992Z,40.67
2022-08-22T16:13:33.976Z,40.95
2022-08-22T16:16:26.655Z,39.93
2022-08-22T16:18:52.949Z,41.32
2022-08-22T16:21:22.039Z,41.21
2022-08-22T16:23:51.523Z,41.60
2022-08-22T16:26:24.484Z,40.81
2022-08-22T16:29:11.569Z,41.92
2022-08-22T16:31:48.220Z,40.82
2022-08-22T16:34:17.732Z,41.64
2022-08-22T16:36:53.340Z,41.09
2022-08-22T16:39:22.654Z,41.71
2022-08-22T16:41:51.828Z,41.80
2022-08-22T16:44:30.242Z,41.66
2022-08-22T16:47:35.143Z,42.25
2022-08-22T16:50:08.115Z,42.51
2022-08-22T16:52:37.488Z,42.18
2022-08-22T16:55:26.084Z,42.25
2022-08-22T16:58:32.360Z,41.66
2022-08-22T17:01:36.664Z,41.71
2022-08-22T17:04:15.324Z,41.99
2022-08-22T17:07:20.649Z,42.90
2022-08-22T17:10:13.796Z,42.33
2022-08-22T17:13:17.224Z,42.64
2022-08-22T17:15:58.176Z,43.23
2022-08-22T17:18:55.138Z,43.69
2022-08-22T17:21:38.115Z,44.72
2022-08-22T17:24:38.714Z,43.91
2022-08-22T17:27:17.812Z,43.80
2022-08-22T17:29:46.909Z,43.88
2022-08-22T17:32:40.364Z,43.74
2022-08-22T17:35:32.788Z,43.96
2022-08-22T17:37:59.349Z,44.84
2022-08-22T17:41:02.104Z,44.92
2022-08-22T17:43:48.988Z,44.99
2022-08-22T17:46:27.291Z,45.38
2022-08-22T17:49:02.191Z,45.30
2022-08-22T17:51:39.270Z,45.54
2022-08-22T17:54:14.613Z,46.15
2022-08-22T17:57:05.346Z,47.44
2022-08-22T17:59:39.560Z,48.47
2022-08-22T18:02:15.516Z,48.96
2022-08-22T18:04:50.352Z,49.49
2022-08-22T18:07:28.574Z,50.81
2022-08-22T18:10:15.157Z,51.98
2022-08-22T18:12:54.006Z,52.18
2022-08-22T18:15:29.597Z,52.96
2022-08-22T18:18:06.607Z,52.76
2022-08-22T18:21:15.411Z,53.71
2022-08-22T18:23:51.968Z,54.06
2022-08-22T18:26:24.161Z,54.77
2022-08-22T18:28:57.693Z,54.96
2022-08-22T18:31:49.185Z,56.17
2022-08-22T18:34:23.172Z,56.27
2022-08-22T18:36:57.304Z,56.18
2022-08-22T18:39:31.564Z,56.67
2022-08-22T18:42:08.969Z,57.47
2022-08-22T18:44:38.412Z,56.97
2022-08-22T18:47:35.163Z,57.89
2022-08-22T18:50:27.698Z,58.21
2022-08-22T18:52:57.442Z,57.60
2022-08-22T18:55:54.826Z,59.13
2022-08-22T18:58:43.887Z,59.42
2022-08-22T19:01:50.894Z,59.85
2022-08-22T19:04:45.896Z,59.81
2022-08-22T19:07:31.461Z,59.84
2022-08-22T19:10:10.103Z,60.36
2022-08-22T19:13:16.931Z,60.90
2022-08-22T19:15:55.338Z,61.27
2022-08-22T19:18:27.930Z,60.93
2022-08-22T19:21:24.677Z,61.69
2022-08-22T19:23:53.316Z,60.96
2022-08-22T19:26:37.014Z,62.49
2022-08-22T19:29:05.761Z,62.72
2022-08-22T19:31:37.247Z,61.73
2022-08-22T19:34:32.876Z,63.35
2022-08-22T19:37:11.330Z,63.65
2022-08-22T19:40:00.736Z,62.53
2022-08-22T19:42:27.220Z,62.71
2022-08-22T19:44:53.544Z,63.03
2022-08-22T19:47:19.837Z,63.33
2022-08-22T19:50:05.449Z,64.06
2022-08-22T19:52:37.946Z,63.86
2022-08-22T19:55:36.943Z,64.84
2022-08-22T19:58:12.172Z,64.27
2022-08-22T20:00:53.952Z,63.95
2022-08-22T20:04:17.814Z,64.88
2022-08-22T20:07:00.451Z,64.83
2022-08-22T20:09:41.881Z,64.80
2022-08-22T20:12:21.170Z,64.84
2022-08-22T20:14:48.343Z,65.02
2022-08-22T20:17:23.744Z,65.53
2022-08-22T20:20:18.327Z,66.33
2022-08-22T20:22:58.954Z,66.64
2022-08-22T20:25:48.348Z,66.89
2022-08-22T20:28:35.979Z,67.28
2022-08-22T20:31:07.254Z,67.08
2022-08-22T20:33:38.175Z,67.79
2022-08-22T20:36:18.530Z,67.71
2022-08-22T20:38:58.663Z,68.10
2022-08-22T20:41:38.722Z,68.90
2022-08-22T20:44:16.469Z,69.60
2022-08-22T20:46:58.047Z,69.93
2022-08-22T20:49:31.233Z,70.08
2022-08-22T20:52:01.584Z,69.68
2022-08-22T20:54:34.440Z,70.25
2022-08-22T20:57:17.077Z,71.53
2022-08-22T20:59:52.919Z,71.41
2022-08-22T21:02:39.381Z,72.76
2022-08-22T21:05:11.509Z,71.65
2022-08-22T21:07:45.229Z,71.79
2022-08-22T21:10:26.816Z,72.04
2022-08-22T21:13:30.441Z,72.11
2022-08-22T21:16:00.447Z,71.65
2022-08-22T21:18:32.757Z,72.58
2022-08-22T21:21:17.270Z,73.57
2022-08-22T21:23:48.021Z,72.91
2022-08-22T21:26:20.023Z,73.21
2022-08-22T21:28:49.360Z,73.58
2022-08-22T21:31:21.911Z,74.24
2022-08-22T21:33:50.661Z,74.57
2022-08-22T21:36:20.306Z,74.69
2022-08-22T21:38:53.649Z,74.51
2022-08-22T21:41:34.034Z,76.34
2022-08-22T21:44:19.193Z,76.42
2022-08-22T21:46:45.641Z,75.55
2022-08-22T21:49:24.865Z,76.38
2022-08-22T21:51:52.056Z,75.88
2022-08-22T21:54:38.143Z,76.92
2022-08-22T21:57:10.642Z,76.17
2022-08-22T21:59:52.110Z,75.94
2022-08-22T22:02:36.657Z,75.52
2022-08-22T22:05:13.292Z,76.40
2022-08-22T22:07:41.590Z,75.97
2022-08-22T22:10:10.960Z,76.30
2022-08-22T22:12:42.697Z,75.97
2022-08-22T22:15:14.099Z,76.03
2022-08-22T22:17:40.499Z,75.91
2022-08-22T22:20:07.669Z,76.24
2022-08-22T22:22:34.076Z,75.98
2022-08-22T22:25:04.444Z,76.32
2022-08-22T22:27:31.655Z,76.50
2022-08-22T22:29:58.157Z,76.67
2022-08-22T22:32:24.585Z,76.84
2022-08-22T22:34:50.957Z,77.05
2022-08-22T22:37:17.731Z,77.83
2022-08-22T22:39:44.318Z,77.97
2022-08-22T22:42:10.744Z,78.08
2022-08-22T22:44:37.154Z,78.57
2022-08-22T22:47:03.730Z,79.27
2022-08-22T22:49:31.960Z,78.97
2022-08-22T22:52:00.127Z,78.78
2022-08-22T22:54:27.211Z,80.21
2022-08-22T22:56:54.118Z,79.75
2022-08-22T22:59:24.630Z,80.12
2022-08-22T23:02:11.126Z,80.79
2022-08-22T23:04:40.128Z,79.89
2022-08-22T23:07:07.962Z,79.84
2022-08-22T23:09:38.748Z,80.23
2022-08-22T23:12:12.405Z,80.58
2022-08-22T23:14:39.150Z,80.57
2022-08-22T23:17:05.689Z,80.24
2022-08-22T23:19:32.884Z,80.64
2022-08-22T23:22:00.989Z,80.26
2022-08-22T23:24:29.065Z,79.80
2022-08-22T23:26:55.609Z,80.22
2022-08-22T23:29:22.045Z,80.01
2022-08-22T23:31:57.567Z,80.12
2022-08-22T23:34:28.665Z,80.01
2022-08-22T23:36:57.171Z,80.48
2022-08-22T23:39:25.332Z,80.49
2022-08-22T23:41:52.407Z,80.34
2022-08-22T23:44:22.977Z,81.34
2022-08-22T23:46:50.028Z,81.25
2022-08-22T23:49:16.645Z,82.50
2022-08-22T23:51:44.404Z,81.97
2022-08-22T23:54:11.592Z,81.44
2022-08-22T23:56:41.132Z,81.10
2022-08-22T23:59:11.249Z,83.06
